^^
Station Historical Data
Daily Summary for January 4, 2017 Units:  Metric    English   Both
« Previous Day
Next Day »
Daily Weekly Monthly Yearly Custom
  High: Low: Average:
Temperature: 32.7 °C 27.3 °C 31 °C
Dew Point: 13.3 °C 9.3 °C 11.5 °C
Humidity: 42% 26% 31%
Wind Speed: 19.5km/h 0km/h 6.8km/h
Wind Gust: 27.4km/h - -
Wind- - South
Pressure: 1003.3 hPa 1001.2 hPa -
Precipitation: 0 mm    
Historical Graphs
 
 
Tabular Data for January 4, 2017
Time Temperature Dew Point Pressure Wind Wind Speed Wind Gust Humidity Rainfall Rate (Hourly) solar Conditions
18:00 31.7 °C 12.5 °C 1001.2 hPa South 9.7 km/h 19.3 km/h 31% 0 mm 118.0 W/m2
18:22 32.2 °C 10.8 °C 1001.6 hPa SSE 13 km/h 16.1 km/h 27% 0 mm 93.0 W/m2
18:36 32.6 °C 10.6 °C 1001.2 hPa SSE 11.1 km/h 17.7 km/h 26% 0 mm 74.0 W/m2
19:16 32.7 °C 11.3 °C 1001.2 hPa SSE 6.4 km/h 8 km/h 27% 0 mm 39.0 W/m2
19:31 32.6 °C 10.6 °C 1001.6 hPa Calm   6.4 km/h 26% 0 mm 14.0 W/m2
19:41 32.4 °C 11 °C 1001.6 hPa Calm     27% 0 mm 5.0 W/m2
19:57 32.1 °C 11.8 °C 1001.6 hPa Calm     29% 0 mm 0.0 W/m2
20:13 32 °C 11.7 °C 1001.9 hPa Calm     29% 0 mm 0.0 W/m2
20:24 31.9 °C 11.1 °C 1001.9 hPa Calm     28% 0 mm 0.0 W/m2
20:33 31.8 °C 11 °C 1001.9 hPa Calm     28% 0 mm 0.0 W/m2
20:45 31.7 °C 11 °C 1001.9 hPa Calm     28% 0 mm 0.0 W/m2
21:00 31.4 °C 11.2 °C 1002.3 hPa SSE 1.4 km/h 1.6 km/h 29% 0 mm 0.0 W/m2
21:04 31.3 °C 11.1 °C 1002.3 hPa Calm   8 km/h 29% 0 mm 0.0 W/m2
21:19 31.3 °C 10.1 °C 1002.6 hPa SSE 6.4 km/h 8 km/h 27% 0 mm 0.0 W/m2
21:33 31.2 °C 9.4 °C 1002.6 hPa SSE 4.7 km/h 12.9 km/h 26% 0 mm 0.0 W/m2
21:41 31.1 °C 9.3 °C 1002.6 hPa SSE 4.7 km/h 11.3 km/h 26% 0 mm 0.0 W/m2
22:32 29.4 °C 12.8 °C 1002.9 hPa South 16.3 km/h 24.1 km/h 36% 0 mm 0.0 W/m2
22:42 29.2 °C 13 °C 1002.9 hPa SSW 19.5 km/h 22.5 km/h 37% 0 mm 0.0 W/m2
22:56 28.9 °C 13.2 °C 1003.3 hPa SSW 19.5 km/h 27.4 km/h 38% 0 mm 0.0 W/m2
23:01 28.8 °C 13.1 °C 1003.3 hPa SSW 14.3 km/h 25.7 km/h 38% 0 mm 0.0 W/m2
23:43 27.8 °C 13.3 °C 1003.3 hPa SSW 11.1 km/h 14.5 km/h 41% 0 mm 0.0 W/m2
23:57 27.3 °C 13.3 °C 1003.3 hPa SSW 9.7 km/h 11.3 km/h 42% 0 mm 0.0 W/m2
Canyon Roadhouse, Fishriver Canyon, Namibia
Compliments of Weather Underground - 1.75 mb